South Chicago Heights, Illinois
Current Conditions -  °F | °C
As of 3:35 PM on Friday 19 Dec 2014 (Local Time) from KIGQ Reporting Station
Overcast Overcast  
Wind Chill: 32°   Ceiling: 2300
Heat Index: 32°   Visibility: 10mi
Dew Point: 25°   Wind: 3mph
Humidity: 75%   Direction: 200°SSW
Pressure: 30.3"   Gusts: NA
Location:  41.5054°N, 87.5907°W
Report Text: KIGQ 192135Z AUTO 20003KT 10SM OVC023 00/M04 A3030 RMK AO2 T00001040
Loading
Personal Weather Stations






























Interactive Weather Map New forecast layout! Learn more

10-Day Weather Forecast

Advertisements
Track Severe Weather on mobile